Time;durP1;ratioP1;P1;durP2;ratioP2;P2;SDS_P1;SDS_P2;PMS_P1;PMS_P2;Temp;Humidity;BMP_temperature;BMP_pressure;BME280_temperature;BME280_humidity;BME280_pressure;Samples;Min_cycle;Max_cycle;Signal;HPM_P1;HPM_P2
2022/05/05 00:00:24;;;;;;;5.35;4.85;;;;;;;15.73;100.00;100505.19;5051059;28;20195;-69
2022/05/05 00:02:50;;;;;;;7.03;4.50;;;;;;;15.69;100.00;100481.66;5050789;28;20210;-69
2022/05/05 00:05:17;;;;;;;5.03;4.63;;;;;;;15.76;100.00;100514.78;5032412;28;20202;-69
2022/05/05 00:07:44;;;;;;;4.93;4.50;;;;;;;15.68;100.00;100508.66;5051006;28;20206;-69
2022/05/05 00:15:40;;;;;;;6.60;4.70;;;;;;;15.85;100.00;100520.88;5020727;28;20214;-69
2022/05/05 00:18:07;;;;;;;8.10;4.53;;;;;;;15.88;100.00;100531.34;5050603;28;20694;-69
2022/05/05 00:20:34;;;;;;;4.93;4.45;;;;;;;15.88;100.00;100528.72;5050738;28;20668;-69
2022/05/05 00:23:00;;;;;;;6.53;4.85;;;;;;;15.85;100.00;100527.84;5050808;28;20203;-69
2022/05/05 00:25:27;;;;;;;7.05;5.15;;;;;;;15.63;100.00;100532.19;5050747;28;20609;-69
2022/05/05 00:27:55;;;;;;;8.13;5.35;;;;;;;15.57;100.00;100528.69;5049838;28;20269;-69
2022/05/05 00:30:22;;;;;;;7.72;6.32;;;;;;;15.67;100.00;100523.47;5049810;28;20246;-69
2022/05/05 00:32:49;;;;;;;5.65;5.13;;;;;;;15.59;100.00;100519.13;5050121;28;20226;-69
2022/05/05 00:35:16;;;;;;;7.03;5.18;;;;;;;15.63;100.00;100532.19;5012406;28;20208;-69
2022/05/05 00:37:43;;;;;;;6.00;5.30;;;;;;;15.64;100.00;100539.16;5014782;28;20651;-69
2022/05/05 00:40:11;;;;;;;6.20;5.45;;;;;;;15.70;100.00;100533.94;5050375;28;20203;-69
2022/05/05 00:42:38;;;;;;;8.02;6.45;;;;;;;15.58;100.00;100533.06;5050399;28;20187;-69
2022/05/05 00:45:08;;;;;;;7.32;6.30;;;;;;;15.70;100.00;100528.72;5050483;28;20223;-69
2022/05/05 00:47:35;;;;;;;11.10;5.68;;;;;;;15.53;100.00;100524.31;5031976;28;20208;-69
2022/05/05 00:50:01;;;;;;;9.52;6.45;;;;;;;15.50;100.00;100526.94;5050725;28;20198;-69
2022/05/05 00:52:28;;;;;;;7.40;6.45;;;;;;;15.29;100.00;100505.09;5014244;28;20215;-69
2022/05/05 00:54:57;;;;;;;6.15;5.57;;;;;;;15.44;100.00;100525.16;5050304;28;20238;-69
2022/05/05 00:57:24;;;;;;;10.20;5.68;;;;;;;15.43;100.00;100519.91;5011591;28;20223;-69
2022/05/05 00:59:52;;;;;;;10.88;6.03;;;;;;;15.01;100.00;100507.59;5048002;28;20660;-69
2022/05/05 01:02:20;;;;;;;9.50;6.65;;;;;;;15.16;100.00;100513.75;5015148;28;20262;-69
2022/05/05 01:04:47;;;;;;;12.50;7.28;;;;;;;15.23;100.00;100520.72;5049778;28;20199;-69
2022/05/05 01:07:15;;;;;;;9.43;6.72;;;;;;;15.18;100.00;100505.91;5046798;28;20287;-69
2022/05/05 01:09:42;;;;;;;13.52;6.40;;;;;;;15.05;100.00;100486.75;5050731;28;20203;-69
2022/05/05 01:12:10;;;;;;;7.28;6.30;;;;;;;15.28;100.00;100523.34;5055810;28;20305;-69
2022/05/05 01:14:37;;;;;;;7.78;6.65;;;;;;;15.13;100.00;100505.91;5058527;28;20226;-69
2022/05/05 01:17:06;;;;;;;10.93;5.63;;;;;;;15.34;100.00;100513.78;5054708;28;20214;-69
2022/05/05 01:19:35;;;;;;;6.03;5.43;;;;;;;15.29;100.00;100502.47;5054533;28;20218;-69
2022/05/05 01:22:05;;;;;;;6.78;5.38;;;;;;;15.30;100.00;100513.81;5053919;28;20207;-69
2022/05/05 01:30:01;;;;;;;10.07;5.38;;;;;;;15.00;100.00;100500.63;5038814;28;20693;-69
2022/05/05 01:32:31;;;;;;;5.47;4.95;;;;;;;15.01;100.00;100507.59;5053904;28;20231;-70
2022/05/05 01:34:58;;;;;;;5.72;4.72;;;;;;;14.84;100.00;100505.78;5045715;28;20227;-69
2022/05/05 01:37:27;;;;;;;6.80;5.22;;;;;;;14.97;100.00;100511.94;5050148;28;20212;-70
2022/05/05 01:39:53;;;;;;;5.55;4.93;;;;;;;14.91;100.00;100511.91;5019148;28;20211;-69
2022/05/05 01:42:20;;;;;;;9.05;5.38;;;;;;;14.74;100.00;100493.56;5053740;28;20203;-69
2022/05/05 01:44:47;;;;;;;12.20;5.43;;;;;;;14.85;100.00;100512.75;5015467;28;20278;-70
2022/05/05 01:47:14;;;;;;;13.25;7.05;;;;;;;14.80;100.00;100503.19;5045268;28;20231;-69
2022/05/05 01:49:43;;;;;;;14.73;6.97;;;;;;;14.52;100.00;100455.16;5014769;28;20203;-70
2022/05/05 01:52:10;;;;;;;15.30;7.63;;;;;;;14.72;100.00;100499.66;5050794;28;20434;-69
2022/05/05 01:54:39;;;;;;;19.60;7.50;;;;;;;14.75;100.00;100497.91;5053643;28;20710;-70
2022/05/05 01:57:06;;;;;;;16.60;7.28;;;;;;;14.78;100.00;100513.59;5053925;28;20207;-69
2022/05/05 01:59:33;;;;;;;20.05;8.00;;;;;;;14.72;100.00;100510.09;5053289;28;20200;-70
2022/05/05 02:02:00;;;;;;;21.13;8.82;;;;;;;14.76;100.00;100517.94;5053680;28;20214;-70
2022/05/05 02:04:27;;;;;;;22.33;9.07;;;;;;;14.72;100.00;100521.41;5053332;28;20207;-69
2022/05/05 02:06:53;;;;;;;24.85;10.00;;;;;;;14.72;100.00;100520.53;5053289;28;20207;-69
2022/05/05 02:09:20;;;;;;;20.83;9.13;;;;;;;14.72;100.00;100523.13;5053788;28;20204;-69
2022/05/05 02:11:48;;;;;;;24.63;9.80;;;;;;;14.84;100.00;100526.66;5053373;28;20211;-70
2022/05/05 02:14:15;;;;;;;18.23;7.50;;;;;;;14.72;100.00;100541.41;5053046;28;20200;-69
2022/05/05 02:16:42;;;;;;;11.98;7.00;;;;;;;14.62;100.00;100508.28;5052825;28;20211;-69
2022/05/05 02:19:09;;;;;;;13.25;6.88;;;;;;;14.65;100.00;100526.59;5044263;28;20203;-69
2022/05/05 02:21:35;;;;;;;12.23;6.72;;;;;;;14.58;100.00;100538.72;5048894;28;20202;-70
2022/05/05 02:24:02;;;;;;;12.50;6.70;;;;;;;14.30;100.00;100523.72;5018371;28;20212;-69
2022/05/05 02:26:29;;;;;;;11.88;6.05;;;;;;;14.20;100.00;100514.94;5052198;28;20677;-69
2022/05/05 02:28:57;;;;;;;6.32;5.30;;;;;;;14.29;100.00;100507.19;5014745;28;20672;-70
2022/05/05 02:31:24;;;;;;;8.32;5.63;;;;;;;14.34;100.00;100542.03;5043271;28;20204;-69
2022/05/05 02:33:51;;;;;;;7.75;6.05;;;;;;;14.29;100.00;100545.44;5052745;28;20713;-69
2022/05/05 02:39:02;;;;;;;7.22;5.88;;;;;;;14.11;100.00;100540.97;5053281;28;20228;-70
2022/05/05 02:41:30;;;;;;;7.18;5.80;;;;;;;14.10;100.00;100544.41;5052255;28;20203;-69
2022/05/05 02:43:58;;;;;;;9.32;6.45;;;;;;;14.14;100.00;100538.38;5052902;28;20195;-70
2022/05/05 02:46:24;;;;;;;9.55;6.35;;;;;;;13.98;100.00;100528.69;5052433;28;20200;-70
2022/05/05 02:48:51;;;;;;;9.90;6.57;;;;;;;14.00;100.00;100546.94;5052435;28;20256;-70
2022/05/05 02:51:18;;;;;;;10.10;6.88;;;;;;;13.97;100.00;100558.22;5053325;28;20195;-69
2022/05/05 02:56:29;;;;;;;10.73;7.05;;;;;;;13.96;100.00;100556.47;5048238;28;20298;-70
2022/05/05 02:58:56;;;;;;;21.27;10.63;;;;;;;13.97;100.00;100571.25;5067290;28;20198;-70
2022/05/05 03:01:24;;;;;;;28.67;14.43;;;;;;;14.05;100.00;100572.22;5057879;28;20198;-69
2022/05/05 03:03:50;;;;;;;23.00;9.55;;;;;;;13.98;100.00;100580.84;5051808;28;20200;-69
2022/05/05 03:06:17;;;;;;;14.50;9.30;;;;;;;13.99;100.00;100582.56;5051956;28;20200;-68
2022/05/05 03:08:44;;;;;;;10.60;7.70;;;;;;;14.01;100.00;100588.69;5052155;28;20203;-71
2022/05/05 03:11:11;;;;;;;9.48;7.72;;;;;;;13.96;100.00;100598.19;5052095;28;20280;-71
2022/05/05 03:13:38;;;;;;;10.98;8.15;;;;;;;13.93;100.00;100590.34;5052122;28;20357;-70
2022/05/05 03:16:05;;;;;;;15.00;8.05;;;;;;;13.93;100.00;100598.16;5052059;28;20210;-70
2022/05/05 03:18:33;;;;;;;14.82;9.13;;;;;;;14.07;100.00;100601.75;5016771;28;20195;-70
2022/05/05 03:21:00;;;;;;;16.55;10.13;;;;;;;13.89;100.00;100592.03;5052017;28;20234;-70
2022/05/05 03:23:27;;;;;;;19.33;10.23;;;;;;;14.36;100.00;100602.06;5018339;28;20206;-70
2022/05/05 03:25:54;;;;;;;9.57;7.32;;;;;;;13.80;100.00;100583.25;5051902;28;20203;-70
2022/05/05 03:28:21;;;;;;;10.88;7.00;;;;;;;13.90;100.00;100603.34;5052241;28;20207;-70
2022/05/05 03:30:49;;;;;;;12.48;6.72;;;;;;;14.06;100.00;100602.63;5052716;28;20214;-70
2022/05/05 03:33:16;;;;;;;7.93;6.22;;;;;;;14.11;100.00;100619.19;5061790;28;20306;-70
2022/05/05 03:35:44;;;;;;;7.57;5.95;;;;;;;14.27;100.00;100605.41;5051346;28;20203;-70
2022/05/05 03:38:11;;;;;;;8.07;6.32;;;;;;;14.68;100.00;100604.91;5040240;28;20555;-70
2022/05/05 03:40:37;;;;;;;6.85;5.20;;;;;;;14.77;100.00;100597.09;5032599;28;20650;-71
2022/05/05 03:43:05;;;;;;;7.05;5.95;;;;;;;14.99;100.00;100625.09;5052006;28;20663;-70
2022/05/05 03:45:31;;;;;;;10.98;6.43;;;;;;;15.11;100.00;100633.03;5051533;28;20637;-68
2022/05/05 03:47:58;;;;;;;7.45;6.15;;;;;;;14.86;100.00;100610.25;5015146;28;20202;-69
2022/05/05 03:50:25;;;;;;;7.35;5.50;;;;;;;15.02;100.00;100609.44;5016458;28;20199;-69
2022/05/05 03:52:53;;;;;;;7.47;6.20;;;;;;;15.16;100.00;100618.22;5062743;28;20227;-69
2022/05/05 03:55:20;;;;;;;6.80;5.15;;;;;;;15.33;100.00;100624.44;5051314;28;20686;-69
2022/05/05 03:57:48;;;;;;;18.55;13.00;;;;;;;15.82;100.00;100616.78;5050439;28;20722;-69
2022/05/05 04:00:16;;;;;;;21.10;13.10;;;;;;;16.48;100.00;100649.13;5051422;28;20199;-69
2022/05/05 04:02:42;;;;;;;13.60;8.65;;;;;;;17.28;100.00;100643.78;5050729;28;20223;-69
2022/05/05 04:05:10;;;;;;;16.65;14.95;;;;;;;18.04;100.00;100651.31;5016220;28;20202;-69
2022/05/05 04:07:37;;;;;;;30.90;27.10;;;;;;;18.52;96.19;100656.25;4996285;28;20251;-69
2022/05/05 04:10:06;;;;;;;12.15;7.95;;;;;;;19.14;94.61;100660.94;5042785;28;20203;-69
2022/05/05 04:12:33;;;;;;;11.93;7.20;;;;;;;19.76;87.42;100667.25;5050817;28;20231;-69
2022/05/05 04:15:00;;;;;;;7.82;5.35;;;;;;;20.35;81.10;100652.38;5050512;28;20664;-69
2022/05/05 04:17:27;;;;;;;7.03;5.30;;;;;;;20.72;76.68;100669.31;5050659;28;20796;-69
2022/05/05 04:19:54;;;;;;;9.63;4.75;;;;;;;21.07;70.82;100688.03;5050344;28;20203;-69
2022/05/05 04:22:22;;;;;;;8.50;5.03;;;;;;;20.95;70.18;100629.34;5050685;28;20196;-69
2022/05/05 04:24:49;;;;;;;8.18;4.65;;;;;;;21.63;69.22;100680.81;5050604;28;20195;-69
2022/05/05 04:27:17;;;;;;;7.72;4.28;;;;;;;21.73;65.83;100682.34;5050990;28;20200;-69
2022/05/05 04:29:44;;;;;;;6.40;4.47;;;;;;;21.10;66.12;100680.09;5051239;28;20200;-69
2022/05/05 04:32:11;;;;;;;9.00;4.85;;;;;;;20.27;67.72;100689.31;5051024;28;20228;-70
2022/05/05 04:34:38;;;;;;;5.22;4.68;;;;;;;19.52;70.83;100673.66;5050340;28;20211;-69
2022/05/05 04:37:05;;;;;;;8.77;4.90;;;;;;;19.27;74.18;100688.81;5050365;28;20204;-69
2022/05/05 04:39:31;;;;;;;5.70;5.10;;;;;;;19.23;85.86;100680.97;5050633;28;20195;-68
2022/05/05 04:41:58;;;;;;;4.40;4.00;;;;;;;19.42;76.83;100697.47;5050884;28;20203;-68
2022/05/05 04:44:27;;;;;;;12.32;4.28;;;;;;;19.15;76.90;100694.22;5050556;28;20241;-68
2022/05/05 04:46:53;;;;;;;9.65;4.43;;;;;;;18.53;80.76;100696.50;5050448;28;20223;-68
2022/05/05 04:49:20;;;;;;;4.95;4.57;;;;;;;18.38;83.67;100700.09;5050481;28;20199;-68
2022/05/05 04:51:47;;;;;;;8.30;4.50;;;;;;;18.26;85.26;100703.66;5050654;28;20195;-68
2022/05/05 04:54:14;;;;;;;9.57;5.22;;;;;;;18.17;86.73;100702.84;5050971;28;20242;-68
2022/05/05 04:56:40;;;;;;;7.47;5.30;;;;;;;17.85;89.93;100703.03;5049679;28;20207;-68
2022/05/05 04:59:07;;;;;;;19.40;10.13;;;;;;;18.04;100.00;100696.81;5050800;28;20203;-68
2022/05/05 05:01:35;;;;;;;21.33;9.80;;;;;;;18.01;92.14;100698.59;5050578;28;20196;-68
2022/05/05 05:04:03;;;;;;;21.77;13.65;;;;;;;17.71;93.83;100691.72;5015615;28;20569;-70
2022/05/05 05:06:29;;;;;;;18.67;11.80;;;;;;;17.66;94.29;100696.09;5050707;28;20231;-69
2022/05/05 05:08:56;;;;;;;40.35;22.08;;;;;;;17.59;95.88;100697.88;5050971;28;20210;-69
2022/05/05 05:11:24;;;;;;;18.35;11.88;;;;;;;17.18;100.00;100695.34;5050755;28;20250;-69
2022/05/05 05:13:50;;;;;;;16.75;8.55;;;;;;;17.41;100.00;100697.91;5050690;28;20235;-69
2022/05/05 05:16:17;;;;;;;15.93;10.45;;;;;;;17.90;96.17;100689.91;5014874;28;20191;-69
2022/05/05 05:18:47;;;;;;;20.77;11.32;;;;;;;18.88;100.00;100677.81;5049784;28;20618;-68
2022/05/05 05:21:13;;;;;;;6.63;6.03;;;;;;;19.21;87.17;100683.63;5050995;28;20261;-68
2022/05/05 05:23:40;;;;;;;9.20;5.53;;;;;;;20.28;80.18;100678.81;5050775;28;20617;-68
2022/05/05 05:26:07;;;;;;;7.32;5.68;;;;;;;20.84;73.86;100684.91;5050554;28;20215;-67
2022/05/05 05:28:34;;;;;;;7.35;6.65;;;;;;;20.77;74.53;100693.81;5050352;28;20210;-68
2022/05/05 05:31:00;;;;;;;10.48;6.28;;;;;;;20.61;75.75;100679.19;5050562;28;20203;-68
2022/05/05 05:33:27;;;;;;;7.38;5.28;;;;;;;20.49;75.30;100682.00;5050521;28;20223;-67
2022/05/05 05:35:55;;;;;;;13.93;5.43;;;;;;;20.60;75.19;100701.16;5050624;28;20208;-67
2022/05/05 05:38:22;;;;;;;10.57;5.65;;;;;;;20.82;74.44;100694.63;5050631;28;20270;-68
2022/05/05 05:40:49;;;;;;;7.88;5.78;;;;;;;20.64;72.47;100656.28;5050685;28;20613;-68
2022/05/05 05:43:16;;;;;;;11.98;6.78;;;;;;;20.41;71.84;100702.31;5050036;28;20196;-69
2022/05/05 05:45:43;;;;;;;9.65;6.63;;;;;;;20.80;72.75;100711.38;5049806;28;20196;-70
2022/05/05 05:48:10;;;;;;;14.40;6.43;;;;;;;21.29;71.62;100711.41;5050122;28;20230;-70
2022/05/05 05:50:38;;;;;;;12.32;6.53;;;;;;;20.79;72.68;100705.22;5049673;28;20234;-70
2022/05/05 05:53:07;;;;;;;11.38;5.85;;;;;;;20.65;75.14;100720.41;5049702;28;20206;-70
2022/05/05 05:55:34;;;;;;;8.77;6.07;;;;;;;20.33;78.05;100699.81;5049435;28;20242;-69
2022/05/05 05:58:00;;;;;;;8.23;6.13;;;;;;;20.20;79.48;100720.16;5049818;28;20195;-69
2022/05/05 06:00:28;;;;;;;18.38;7.22;;;;;;;19.71;80.96;100721.69;5050978;28;20694;-69
2022/05/05 06:05:39;;;;;;;10.65;6.78;;;;;;;19.16;89.80;100727.50;5053470;28;20198;-69
2022/05/05 06:08:07;;;;;;;9.80;6.85;;;;;;;18.90;90.39;100716.38;5053171;28;20219;-69
2022/05/05 06:10:36;;;;;;;11.70;8.00;;;;;;;18.85;90.57;100738.28;5053190;28;20701;-69
2022/05/05 06:13:03;;;;;;;16.83;7.30;;;;;;;18.71;92.18;100720.03;5052911;28;20280;-69
2022/05/05 06:15:30;;;;;;;10.40;7.20;;;;;;;18.72;93.33;100724.41;5053028;28;20196;-69
2022/05/05 06:17:57;;;;;;;10.18;7.28;;;;;;;18.77;93.44;100738.34;5052919;28;20214;-69
2022/05/05 06:20:24;;;;;;;11.75;7.43;;;;;;;18.75;93.49;100741.00;5052875;28;20199;-69
2022/05/05 06:22:51;;;;;;;12.23;7.05;;;;;;;18.32;96.47;100743.03;5053417;28;20207;-69
2022/05/05 06:25:20;;;;;;;8.18;6.70;;;;;;;18.39;96.15;100729.84;5052979;28;20203;-69
2022/05/05 06:27:48;;;;;;;9.82;7.28;;;;;;;18.27;97.95;100742.16;5052948;28;20203;-69
2022/05/05 06:30:15;;;;;;;11.27;7.30;;;;;;;18.30;97.68;100739.50;5052808;28;20206;-70
2022/05/05 06:32:42;;;;;;;14.98;8.38;;;;;;;18.56;98.48;100741.13;5052539;28;20196;-69
2022/05/05 06:35:09;;;;;;;12.30;7.53;;;;;;;19.07;96.18;100746.00;5052296;28;20655;-69
2022/05/05 06:37:36;;;;;;;18.23;7.03;;;;;;;18.75;96.35;100730.50;5052616;28;20203;-69
2022/05/05 06:40:04;;;;;;;11.65;7.10;;;;;;;18.78;95.96;100740.09;5052508;28;20204;-69
2022/05/05 06:42:32;;;;;;;11.20;7.18;;;;;;;18.97;96.32;100749.59;5052646;28;20199;-69
2022/05/05 06:44:59;;;;;;;12.32;6.57;;;;;;;18.96;92.62;100736.44;5052614;28;20207;-69
2022/05/05 06:47:26;;;;;;;8.70;5.90;;;;;;;18.93;90.36;100750.50;5052694;28;20196;-69
2022/05/05 06:49:53;;;;;;;9.20;6.95;;;;;;;18.84;98.03;100763.69;5052360;28;20203;-75
2022/05/05 06:52:20;;;;;;;12.88;6.03;;;;;;;18.88;91.78;100761.91;5052595;28;20199;-68
2022/05/05 06:54:47;;;;;;;8.65;6.85;;;;;;;18.83;93.76;100764.59;5016736;28;20239;-68
2022/05/05 06:57:14;;;;;;;10.68;6.53;;;;;;;19.17;92.44;100771.31;5052604;28;20215;-68
2022/05/05 06:59:42;;;;;;;7.80;6.22;;;;;;;18.90;94.44;100766.31;5052182;28;20262;-68
2022/05/05 07:02:11;;;;;;;10.15;6.30;;;;;;;19.02;94.19;100775.81;5052262;28;20203;-68
2022/05/05 07:07:22;;;;;;;8.27;5.68;;;;;;;18.93;92.68;100747.88;5052207;28;20194;-68
2022/05/05 07:12:33;;;;;;;7.30;6.57;;;;;;;19.03;94.74;100777.56;5052012;28;20241;-68
2022/05/05 07:15:02;;;;;;;10.95;6.57;;;;;;;19.40;95.08;100775.50;5051682;28;20230;-68
2022/05/05 07:17:28;;;;;;;5.82;5.28;;;;;;;19.25;95.50;100768.63;5051950;28;20249;-68
2022/05/05 07:19:55;;;;;;;7.95;5.28;;;;;;;18.98;94.47;100764.47;5051910;28;20200;-68
2022/05/05 07:22:22;;;;;;;8.48;5.72;;;;;;;19.39;91.80;100785.13;5051661;28;20199;-68
2022/05/05 07:24:49;;;;;;;8.88;6.40;;;;;;;19.49;93.21;100780.69;5016531;28;20745;-68
2022/05/05 07:27:16;;;;;;;6.40;5.68;;;;;;;19.47;87.33;100788.59;5051382;28;20203;-68
2022/05/05 07:29:43;;;;;;;7.55;5.10;;;;;;;19.34;89.21;100781.66;5051625;28;20256;-68
2022/05/05 07:32:11;;;;;;;5.72;5.10;;;;;;;19.63;85.21;100782.28;5051300;28;20203;-68
2022/05/05 07:34:40;;;;;;;6.82;5.22;;;;;;;19.58;86.80;100788.50;5051446;28;20289;-68
2022/05/05 08:12:08;;;;;;;6.95;5.65;;;;;;;20.68;77.78;100786.25;5033604;28;20862;-68
2022/05/05 08:14:35;;;;;;;6.20;5.18;;;;;;;20.44;75.64;100807.69;5016059;28;20324;-68
2022/05/05 08:17:02;;;;;;;6.38;5.38;;;;;;;20.22;73.01;100799.16;5050654;28;20790;-68
2022/05/05 08:19:28;;;;;;;5.47;4.88;;;;;;;20.57;71.10;100804.84;5050439;28;20206;-68
2022/05/05 08:21:55;;;;;;;8.05;5.53;;;;;;;20.83;75.31;100793.91;5050658;28;20253;-68
2022/05/05 08:29:52;;;;;;;5.88;4.90;;;;;;;21.34;64.62;100802.75;5050454;28;20194;-68
2022/05/05 08:32:19;;;;;;;11.05;5.68;;;;;;;21.35;70.39;100806.25;5050628;28;20227;-68
2022/05/05 08:34:46;;;;;;;6.13;5.50;;;;;;;21.45;71.46;100810.47;5050294;28;20304;-68
2022/05/05 08:37:13;;;;;;;6.13;5.43;;;;;;;21.15;72.98;100798.72;5050420;28;20269;-68
2022/05/05 08:53:08;;;;;;;4.75;4.40;;;;;;;22.01;62.43;100820.88;5050301;28;20190;-68
2022/05/05 08:55:35;;;;;;;4.53;4.10;;;;;;;21.64;58.91;100811.91;5050199;28;20301;-68
2022/05/05 08:58:02;;;;;;;5.90;5.07;;;;;;;21.75;61.88;100815.22;5050414;28;20199;-68
2022/05/05 09:00:29;;;;;;;6.70;5.70;;;;;;;21.94;62.97;100806.03;5050199;28;20207;-68
2022/05/05 09:02:59;;;;;;;6.82;5.63;;;;;;;22.24;61.74;100810.72;5050067;28;20202;-68
2022/05/05 09:05:49;;;;;;;8.82;4.88;;;;;;;22.26;62.11;100810.66;5049912;28;20211;-68
2022/05/05 09:08:28;;;;;;;6.35;5.75;;;;;;;22.45;62.65;100812.03;5050207;28;20227;-68
2022/05/05 09:10:56;;;;;;;5.97;5.38;;;;;;;21.65;62.89;100814.50;5050326;28;20207;-68
2022/05/05 09:13:24;;;;;;;6.05;5.35;;;;;;;21.29;65.20;100748.34;5049855;28;20235;-68
2022/05/05 09:15:53;;;;;;;10.27;6.57;;;;;;;21.80;64.48;100812.47;5049635;28;20238;-68
2022/05/05 09:18:22;;;;;;;8.90;5.55;;;;;;;22.10;61.86;100807.50;5050037;28;20219;-68
2022/05/05 09:20:50;;;;;;;8.00;5.55;;;;;;;22.20;58.94;100777.34;5050178;28;20203;-68
2022/05/05 09:23:34;;;;;;;8.85;4.55;;;;;;;22.66;54.83;100802.75;5050034;28;20199;-68
2022/05/05 09:26:02;;;;;;;4.53;3.92;;;;;;;22.52;54.18;100815.41;5049793;28;20199;-68
2022/05/05 09:28:31;;;;;;;4.20;3.90;;;;;;;22.65;51.81;100750.78;5049984;28;20199;-68
2022/05/05 09:31:05;;;;;;;3.25;3.05;;;;;;;22.21;52.13;100805.50;5050104;28;20203;-68
2022/05/05 09:33:43;;;;;;;3.08;2.90;;;;;;;22.12;50.39;100825.94;5050143;28;20223;-68
2022/05/05 09:36:13;;;;;;;3.72;3.40;;;;;;;22.51;50.16;100811.03;5052581;28;20287;-67
2022/05/05 09:38:55;;;;;;;3.67;3.38;;;;;;;23.00;50.17;100794.94;5053828;28;20196;-68
2022/05/05 09:41:23;;;;;;;5.03;3.70;;;;;;;23.34;49.38;100810.81;5053583;28;20203;-67
2022/05/05 09:43:51;;;;;;;4.68;3.45;;;;;;;23.41;48.93;100791.22;5053641;28;20192;-67
2022/05/05 09:46:32;;;;;;;3.63;3.33;;;;;;;23.65;46.65;100798.56;5053418;28;20199;-67
2022/05/05 09:49:08;;;;;;;4.13;3.72;;;;;;;23.26;49.60;100805.72;5053435;28;20207;-67
2022/05/05 09:51:38;;;;;;;3.33;3.03;;;;;;;23.21;48.65;100812.91;5053389;28;20238;-68
2022/05/05 09:59:48;;;;;;;5.00;3.47;;;;;;;23.60;48.35;100798.69;5053434;28;20264;-67
2022/05/05 10:04:00;;;;;;;5.45;4.15;;;;;;;23.51;49.93;100788.31;5053204;28;20226;-67
2022/05/05 10:05:09;;;;;;;5.47;4.97;;;;;;;23.90;51.54;100804.88;5053109;28;20262;-67
2022/05/05 10:07:39;;;;;;;5.97;4.85;;;;;;;24.37;50.75;100810.63;5053204;28;20202;-67
2022/05/05 10:10:09;;;;;;;7.78;5.13;;;;;;;23.34;52.56;100808.16;5052918;28;20253;-67
2022/05/05 10:12:37;;;;;;;10.15;4.95;;;;;;;23.63;50.92;100803.88;5052809;28;20267;-67
2022/05/05 10:15:04;;;;;;;5.00;4.50;;;;;;;23.21;53.11;100802.31;5052902;28;20749;-67
2022/05/05 10:17:31;;;;;;;9.50;4.75;;;;;;;22.78;51.87;100775.19;5018008;28;20230;-67
2022/05/05 10:19:58;;;;;;;4.03;3.35;;;;;;;22.43;52.23;100783.91;5053174;28;20219;-67
2022/05/05 10:22:36;;;;;;;5.82;4.47;;;;;;;23.21;51.36;100794.38;5052915;28;20206;-67
2022/05/05 10:25:09;;;;;;;4.93;4.25;;;;;;;23.45;52.43;100801.72;5052696;28;20199;-69
2022/05/05 10:27:42;;;;;;;4.50;4.10;;;;;;;23.23;50.61;100803.16;5052838;28;20199;-66
2022/05/05 10:30:15;;;;;;;3.63;3.42;;;;;;;22.64;51.28;100801.91;5052659;28;20199;-66
2022/05/05 10:32:42;;;;;;;5.35;3.58;;;;;;;22.61;49.70;100783.47;5052688;28;20302;-68
2022/05/05 10:35:21;;;;;;;5.03;3.40;;;;;;;22.75;49.26;100807.00;5052572;28;20250;-66
2022/05/05 10:37:48;;;;;;;5.03;2.65;;;;;;;22.68;48.12;100791.28;5053053;28;20601;-75
2022/05/05 10:40:17;;;;;;;3.10;2.80;;;;;;;22.62;47.81;100801.06;5052770;28;20203;-69
2022/05/05 10:42:45;;;;;;;5.88;2.90;;;;;;;22.86;47.87;100779.41;5052593;28;20717;-69
2022/05/05 10:45:16;;;;;;;4.50;3.08;;;;;;;23.23;45.83;100797.84;5052147;28;20211;-67
2022/05/05 10:48:34;;;;;;;3.20;3.00;;;;;;;23.68;45.10;100791.41;5052354;28;20199;-67
2022/05/05 10:51:06;;;;;;;4.38;3.05;;;;;;;23.49;44.51;100773.38;5052964;28;20200;-68
2022/05/05 10:53:36;;;;;;;3.28;2.97;;;;;;;23.09;45.65;100787.63;5052352;28;20601;-68
2022/05/05 10:56:06;;;;;;;7.88;2.97;;;;;;;23.05;44.90;100798.31;5052357;28;20224;-68
2022/05/05 10:58:58;;;;;;;5.90;2.53;;;;;;;22.98;44.61;100794.94;5052103;28;20643;-67
2022/05/05 11:01:25;;;;;;;5.95;2.92;;;;;;;22.79;44.56;100782.22;5052285;28;20282;-66
2022/05/05 11:04:24;;;;;;;2.75;2.55;;;;;;;23.19;44.26;100793.53;5052022;28;20633;-67
2022/05/05 11:07:30;;;;;;;3.90;3.08;;;;;;;23.34;44.40;100787.00;5051978;28;20287;-67
2022/05/05 11:09:57;;;;;;;2.92;2.67;;;;;;;23.09;43.81;100787.63;5052195;28;20203;-67
2022/05/05 11:12:32;;;;;;;2.97;2.78;;;;;;;23.23;43.46;100788.13;5016427;28;20222;-67
2022/05/05 11:23:32;;;;;;;6.78;3.20;;;;;;;23.26;42.40;100773.09;5051664;28;20207;-66
2022/05/05 11:26:00;;;;;;;2.70;2.50;;;;;;;22.97;43.49;100785.25;5051934;28;20210;-67
2022/05/05 11:28:30;;;;;;;2.25;2.15;;;;;;;23.39;42.80;100791.28;5051839;28;20671;-67
2022/05/05 11:30:57;;;;;;;2.80;2.60;;;;;;;23.29;42.86;100783.63;5051650;28;20284;-67
2022/05/05 11:33:24;;;;;;;3.95;2.45;;;;;;;23.63;41.77;100789.78;5051898;28;20199;-67
2022/05/05 11:35:57;;;;;;;3.47;2.50;;;;;;;23.80;41.82;100791.94;5051272;28;20715;-67
2022/05/05 11:38:24;;;;;;;4.25;2.40;;;;;;;23.45;41.50;100787.63;5051562;28;20253;-66
2022/05/05 11:40:59;;;;;;;3.03;2.83;;;;;;;23.95;41.06;100772.97;5051490;28;20243;-67
2022/05/05 11:46:12;;;;;;;3.40;2.20;;;;;;;23.38;41.92;100778.94;5051393;28;20304;-67
2022/05/05 11:48:38;;;;;;;2.70;2.30;;;;;;;23.18;41.81;100776.81;5051104;28;20192;-67
2022/05/05 11:51:06;;;;;;;2.20;2.00;;;;;;;23.39;41.00;100779.81;5016162;28;20199;-67
2022/05/05 11:53:33;;;;;;;2.55;2.35;;;;;;;23.48;41.28;100761.94;5051286;28;20191;-67
2022/05/05 11:55:59;;;;;;;2.05;1.90;;;;;;;23.88;40.72;100782.88;5051172;28;20289;-67
2022/05/05 12:01:40;;;;;;;2.58;2.38;;;;;;;24.10;40.89;100776.06;4989513;28;20220;-67
2022/05/05 12:04:10;;;;;;;2.60;2.33;;;;;;;23.81;41.23;100746.88;4989453;28;20228;-68
2022/05/05 12:06:38;;;;;;;2.75;2.55;;;;;;;23.96;40.66;100774.72;4989243;28;20284;-68
2022/05/05 12:09:07;;;;;;;3.35;2.80;;;;;;;24.19;40.26;100780.25;4989332;28;20208;-68
2022/05/05 12:11:35;;;;;;;2.65;2.45;;;;;;;23.90;40.78;100751.91;4989133;28;20237;-67
2022/05/05 12:14:04;;;;;;;2.55;2.30;;;;;;;23.67;40.75;100764.94;4989008;28;20205;-68
2022/05/05 12:16:35;;;;;;;2.50;2.30;;;;;;;23.94;41.50;100768.59;4989112;28;20233;-67
2022/05/05 12:19:11;;;;;;;4.93;2.60;;;;;;;23.97;41.58;100750.81;4989007;28;20208;-68
2022/05/05 12:21:38;;;;;;;5.25;2.72;;;;;;;24.13;41.04;100765.41;4989140;28;20292;-68
2022/05/05 12:24:06;;;;;;;5.13;2.58;;;;;;;23.96;41.58;100759.69;4988872;28;20212;-68
2022/05/05 12:26:35;;;;;;;3.03;2.83;;;;;;;23.90;40.85;100736.00;4988963;28;20268;-68
2022/05/05 12:29:02;;;;;;;2.70;2.50;;;;;;;23.74;42.09;100740.03;4989249;28;20237;-68
2022/05/05 12:31:29;;;;;;;3.70;2.33;;;;;;;23.84;41.41;100761.81;4994183;28;20679;-68
2022/05/05 12:33:58;;;;;;;1.92;1.83;;;;;;;23.50;41.70;100772.50;5050840;28;20226;-68
2022/05/05 12:36:28;;;;;;;5.80;2.60;;;;;;;23.78;41.02;100765.53;5052532;28;20377;-68
2022/05/05 12:39:11;;;;;;;4.47;2.45;;;;;;;24.10;40.79;100765.47;5057382;28;20290;-68
2022/05/05 12:41:38;;;;;;;7.43;2.28;;;;;;;23.83;40.81;100755.66;5058103;28;20195;-70
2022/05/05 12:44:09;;;;;;;4.50;2.33;;;;;;;23.90;40.02;100724.56;5060319;28;20199;-70
2022/05/05 12:46:48;;;;;;;3.95;2.55;;;;;;;23.99;41.00;100742.84;5057986;28;20671;-68
2022/05/05 12:49:34;;;;;;;8.88;2.60;;;;;;;24.16;40.38;100743.22;5046649;28;20290;-68
2022/05/05 12:52:01;;;;;;;6.38;2.40;;;;;;;24.14;39.93;100745.06;5030924;28;20291;-69
2022/05/05 12:59:56;;;;;;;4.40;2.53;;;;;;;23.88;40.71;100742.28;4987780;28;20204;-69
2022/05/05 13:02:23;;;;;;;5.15;2.45;;;;;;;23.67;40.71;100744.63;4988001;28;20694;-69
2022/05/05 13:04:51;;;;;;;3.65;2.78;;;;;;;24.23;40.76;100743.91;4988174;28;20208;-70
2022/05/05 13:07:19;;;;;;;4.40;2.30;;;;;;;23.99;40.12;100738.41;4987894;28;20205;-69
2022/05/05 13:09:45;;;;;;;3.25;2.35;;;;;;;24.28;39.99;100744.66;4989325;28;20252;-69